PWSweather.com
Personal Weather Stations
Station Observations
KV9EWX
Winnebago, Il, Winnebago, IL 61088

Winnebago, IlWinnebago, IL 61088

Lat: 42.261175, Lon: -89.236369

Elevation: 892

Station Type: Lacrosse ws-2811

Latest ConditionsUpdated 9:08:49 AM CDT Friday, Oct 31, 2014
Currently Today's Max Today's Min Today's Average
Temperature 34.4°F1.3°C 43.2°F6.2°C 31.0°F-0.6°C 36.7°F2.6°C
Dew Point 25.0°F-3.9°C 37.1°F2.8°C 23.8°F-4.6°C 28.8°F-1.8°C
Winds 11.8 mph N19.0 kmh N 14.9 mph NNW24.0 kmh NNW - 6.6 mph 10.6 kmh
Wind Gusts 25.0 mph40.2 kmh 32.9 mph52.9 kmh - -
Humidity 68% 82% 66% 73%
Pressure 29.79 in1008.8 mb 29.80 in1009.1 mb 29.63 in1003.4 mb -
Hour Temp Dew Point Humidity Winds Wind Gusts Pressure Precip Precip Rate Daily Precip Total
09:08 AM 34.4°F1.3°C 25.0°F-3.9°C 68% 11.8 mph N19.0 kmh N 25.0 mph40.2 kmh 29.79 in1008.8 mb 0.00 in0.0 mm 0.00 in/hr0.0 mm/hr 0.00 in0.0 mm
09:03 AM 34.2°F1.2°C 24.8°F-4.0°C 68% 12.4 mph NNW20.0 kmh NNW 32.9 mph52.9 kmh 29.80 in1009.1 mb 0.00 in0.0 mm 0.00 in/hr0.0 mm/hr 0.00 in0.0 mm
08:58 AM 34.0°F1.1°C 25.0°F-3.9°C 69% 9.9 mph NW15.9 kmh NW 32.9 mph52.9 kmh 29.79 in1008.8 mb 0.00 in0.0 mm 0.00 in/hr0.0 mm/hr 0.00 in0.0 mm
08:53 AM 33.7°F0.9°C 25.0°F-3.9°C 70% 10.6 mph N17.1 kmh N 25.4 mph40.9 kmh 29.79 in1008.8 mb 0.00 in0.0 mm 0.00 in/hr0.0 mm/hr 0.00 in0.0 mm
08:48 AM 33.4°F0.8°C 24.7°F-4.1°C 70% 13.6 mph N21.9 kmh N 32.5 mph52.3 kmh 29.79 in1008.8 mb 0.00 in0.0 mm 0.00 in/hr0.0 mm/hr 0.00 in0.0 mm
08:43 AM 33.6°F0.9°C 25.2°F-3.8°C 71% 11.9 mph N19.2 kmh N 32.5 mph52.3 kmh 29.79 in1008.8 mb 0.00 in0.0 mm 0.00 in/hr0.0 mm/hr 0.00 in0.0 mm
08:38 AM 33.4°F0.8°C 25.0°F-3.9°C 71% 14.9 mph NNW24.0 kmh NNW 32.5 mph52.3 kmh 29.79 in1008.8 mb 0.00 in0.0 mm 0.00 in/hr0.0 mm/hr 0.00 in0.0 mm
08:33 AM 33.2°F0.7°C 24.5°F-4.2°C 70% 12.4 mph N20.0 kmh N 28.5 mph45.9 kmh 29.79 in1008.8 mb 0.00 in0.0 mm 0.00 in/hr0.0 mm/hr 0.00 in0.0 mm
08:28 AM 33.2°F0.7°C 25.2°F-3.8°C 72% 12.1 mph NNW19.5 kmh NNW 28.5 mph45.9 kmh 29.78 in1008.5 mb 0.00 in0.0 mm 0.00 in/hr0.0 mm/hr 0.00 in0.0 mm
08:23 AM 33.2°F0.7°C 25.5°F-3.6°C 73% 10.0 mph NW16.1 kmh NW 24.7 mph39.8 kmh 29.78 in1008.5 mb 0.00 in0.0 mm 0.00 in/hr0.0 mm/hr 0.00 in0.0 mm
08:18 AM 33.2°F0.7°C 25.5°F-3.6°C 73% 10.5 mph NNW16.9 kmh NNW 28.5 mph45.9 kmh 29.78 in1008.5 mb 0.00 in0.0 mm 0.00 in/hr0.0 mm/hr 0.00 in0.0 mm
08:13 AM 32.8°F0.4°C 25.5°F-3.6°C 74% 12.5 mph N20.1 kmh N 28.5 mph45.9 kmh 29.78 in1008.5 mb 0.00 in0.0 mm 0.00 in/hr0.0 mm/hr 0.00 in0.0 mm
08:08 AM 32.8°F0.4°C 26.1°F-3.3°C 76% 10.7 mph N17.2 kmh N 18.4 mph29.6 kmh 29.77 in1008.1 mb 0.00 in0.0 mm 0.00 in/hr0.0 mm/hr 0.00 in0.0 mm
08:03 AM 32.7°F0.4°C 26.3°F-3.2°C 77% 6.9 mph N11.1 kmh N 23.1 mph37.2 kmh 29.77 in1008.1 mb 0.00 in0.0 mm 0.00 in/hr0.0 mm/hr 0.00 in0.0 mm
07:58 AM 32.5°F0.3°C 26.4°F-3.1°C 78% 8.7 mph N14.0 kmh N 25.4 mph40.9 kmh 29.76 in1007.8 mb 0.00 in0.0 mm 0.00 in/hr0.0 mm/hr 0.00 in0.0 mm
07:53 AM 32.3°F0.2°C 26.5°F-3.1°C 79% 10.9 mph NNW17.5 kmh NNW 25.4 mph40.9 kmh 29.76 in1007.8 mb 0.00 in0.0 mm 0.00 in/hr0.0 mm/hr 0.00 in0.0 mm
07:48 AM 31.9°F-0.1°C 26.5°F-3.1°C 80% 7.9 mph N12.7 kmh N 25.4 mph40.9 kmh 29.76 in1007.8 mb 0.00 in0.0 mm 0.00 in/hr0.0 mm/hr 0.00 in0.0 mm
07:43 AM 31.6°F-0.2°C 26.5°F-3.1°C 81% 11.5 mph NW18.5 kmh NW 21.2 mph34.1 kmh 29.76 in1007.8 mb 0.00 in0.0 mm 0.00 in/hr0.0 mm/hr 0.00 in0.0 mm
07:38 AM 31.4°F-0.3°C 26.3°F-3.2°C 81% 7.8 mph NNW12.6 kmh NNW 19.9 mph32.0 kmh 29.76 in1007.8 mb 0.00 in0.0 mm 0.00 in/hr0.0 mm/hr 0.00 in0.0 mm
07:33 AM 31.2°F-0.4°C 26.1°F-3.3°C 81% 6.2 mph NNW10.0 kmh NNW 15.6 mph25.1 kmh 29.76 in1007.8 mb 0.00 in0.0 mm 0.00 in/hr0.0 mm/hr 0.00 in0.0 mm
07:28 AM 31.2°F-0.4°C 26.4°F-3.1°C 82% 6.4 mph NNW10.3 kmh NNW 15.6 mph25.1 kmh 29.75 in1007.5 mb 0.00 in0.0 mm 0.00 in/hr0.0 mm/hr 0.00 in0.0 mm
07:23 AM 31.0°F-0.6°C 26.2°F-3.2°C 82% 8.8 mph N14.2 kmh N 19.6 mph31.5 kmh 29.75 in1007.5 mb 0.00 in0.0 mm 0.00 in/hr0.0 mm/hr 0.00 in0.0 mm
07:18 AM 31.2°F-0.4°C 26.4°F-3.1°C 82% 9.3 mph NNW15.0 kmh NNW 19.6 mph31.5 kmh 29.75 in1007.5 mb 0.00 in0.0 mm 0.00 in/hr0.0 mm/hr 0.00 in0.0 mm
07:13 AM 31.2°F-0.4°C 26.4°F-3.1°C 82% 9.4 mph N15.1 kmh N 18.0 mph29.0 kmh 29.74 in1007.1 mb 0.00 in0.0 mm 0.00 in/hr0.0 mm/hr 0.00 in0.0 mm
07:08 AM 31.2°F-0.4°C 26.4°F-3.1°C 82% 8.7 mph NNW14.0 kmh NNW 19.3 mph31.1 kmh 29.74 in1007.1 mb 0.00 in0.0 mm 0.00 in/hr0.0 mm/hr 0.00 in0.0 mm
07:03 AM 31.2°F-0.4°C 26.4°F-3.1°C 82% 4.9 mph NNW7.9 kmh NNW 26.3 mph42.3 kmh 29.74 in1007.1 mb 0.00 in0.0 mm 0.00 in/hr0.0 mm/hr 0.00 in0.0 mm
06:58 AM 31.2°F-0.4°C 26.4°F-3.1°C 82% 7.5 mph NW12.1 kmh NW 26.3 mph42.3 kmh 29.74 in1007.1 mb 0.00 in0.0 mm 0.00 in/hr0.0 mm/hr 0.00 in0.0 mm
06:53 AM 31.2°F-0.4°C 26.1°F-3.3°C 81% 6.5 mph NNW10.5 kmh NNW 17.1 mph27.5 kmh 29.74 in1007.1 mb 0.00 in0.0 mm 0.00 in/hr0.0 mm/hr 0.00 in0.0 mm
06:48 AM 31.2°F-0.4°C 26.1°F-3.3°C 81% 5.5 mph NW8.9 kmh NW 18.4 mph29.6 kmh 29.74 in1007.1 mb 0.00 in0.0 mm 0.00 in/hr0.0 mm/hr 0.00 in0.0 mm
06:43 AM 31.2°F-0.4°C 26.1°F-3.3°C 81% 9.1 mph NNW14.6 kmh NNW 18.4 mph29.6 kmh 29.74 in1007.1 mb 0.00 in0.0 mm 0.00 in/hr0.0 mm/hr 0.00 in0.0 mm
06:38 AM 31.2°F-0.4°C 25.8°F-3.4°C 80% 5.8 mph NNW9.3 kmh NNW 11.7 mph18.8 kmh 29.74 in1007.1 mb 0.00 in0.0 mm 0.00 in/hr0.0 mm/hr 0.00 in0.0 mm
06:33 AM 31.4°F-0.3°C 25.7°F-3.5°C 79% 5.8 mph 9.3 kmh 13.3 mph21.4 kmh 29.73 in1006.8 mb 0.00 in0.0 mm 0.00 in/hr0.0 mm/hr 0.00 in0.0 mm
06:28 AM 31.8°F-0.1°C 25.8°F-3.4°C 78% 5.4 mph NW8.7 kmh NW 24.3 mph39.1 kmh 29.73 in1006.8 mb 0.00 in0.0 mm 0.00 in/hr0.0 mm/hr 0.00 in0.0 mm
06:23 AM 32.3°F0.2°C 25.6°F-3.6°C 76% 9.2 mph N14.8 kmh N 24.3 mph39.1 kmh 29.74 in1007.1 mb 0.00 in0.0 mm 0.00 in/hr0.0 mm/hr 0.00 in0.0 mm
06:18 AM 32.8°F0.4°C 24.8°F-4.0°C 72% 7.0 mph NW11.3 kmh NW 16.1 mph25.9 kmh 29.73 in1006.8 mb 0.00 in0.0 mm 0.00 in/hr0.0 mm/hr 0.00 in0.0 mm
06:13 AM 32.8°F0.4°C 24.5°F-4.2°C 71% 4.8 mph NNW7.7 kmh NNW 24.3 mph39.1 kmh 29.73 in1006.8 mb 0.00 in0.0 mm 0.00 in/hr0.0 mm/hr 0.00 in0.0 mm
06:08 AM 32.8°F0.4°C 24.1°F-4.4°C 70% 9.7 mph NW15.6 kmh NW 30.1 mph48.4 kmh 29.72 in1006.4 mb 0.00 in0.0 mm 0.00 in/hr0.0 mm/hr 0.00 in0.0 mm
06:03 AM 32.8°F0.4°C 24.1°F-4.4°C 70% 13.1 mph NW21.1 kmh NW 30.1 mph48.4 kmh 29.72 in1006.4 mb 0.00 in0.0 mm 0.00 in/hr0.0 mm/hr 0.00 in0.0 mm
05:58 AM 33.0°F0.6°C 24.0°F-4.4°C 69% 8.0 mph NNW12.9 kmh NNW 19.9 mph32.0 kmh 29.72 in1006.4 mb 0.00 in0.0 mm 0.00 in/hr0.0 mm/hr 0.00 in0.0 mm
05:53 AM 33.0°F0.6°C 24.3°F-4.3°C 70% 7.6 mph NNW12.2 kmh NNW 14.9 mph24.0 kmh 29.72 in1006.4 mb 0.00 in0.0 mm 0.00 in/hr0.0 mm/hr 0.00 in0.0 mm
05:48 AM 33.0°F0.6°C 24.0°F-4.4°C 69% 7.4 mph NNW11.9 kmh NNW 14.5 mph23.3 kmh 29.72 in1006.4 mb 0.00 in0.0 mm 0.00 in/hr0.0 mm/hr 0.00 in0.0 mm
05:43 AM 33.0°F0.6°C 24.0°F-4.4°C 69% 5.4 mph NNW8.7 kmh NNW 18.4 mph29.6 kmh 29.72 in1006.4 mb 0.00 in0.0 mm 0.00 in/hr0.0 mm/hr 0.00 in0.0 mm
05:38 AM 33.0°F0.6°C 24.0°F-4.4°C 69% 10.6 mph NNW17.1 kmh NNW 18.4 mph29.6 kmh 29.71 in1006.1 mb 0.00 in0.0 mm 0.00 in/hr0.0 mm/hr 0.00 in0.0 mm
05:33 AM 33.2°F0.7°C 24.2°F-4.3°C 69% 7.0 mph NNW11.3 kmh NNW 13.7 mph22.0 kmh 29.71 in1006.1 mb 0.00 in0.0 mm 0.00 in/hr0.0 mm/hr 0.00 in0.0 mm
05:28 AM 33.2°F0.7°C 23.8°F-4.6°C 68% 5.8 mph NNW9.3 kmh NNW 20.3 mph32.7 kmh 29.71 in1006.1 mb 0.00 in0.0 mm 0.00 in/hr0.0 mm/hr 0.00 in0.0 mm
05:23 AM 33.4°F0.8°C 24.0°F-4.4°C 68% 9.1 mph NW14.6 kmh NW 20.3 mph32.7 kmh 29.71 in1006.1 mb 0.00 in0.0 mm 0.00 in/hr0.0 mm/hr 0.00 in0.0 mm
05:18 AM 33.6°F0.9°C 24.2°F-4.3°C 68% 5.4 mph NNW8.7 kmh NNW 19.9 mph32.0 kmh 29.71 in1006.1 mb 0.00 in0.0 mm 0.00 in/hr0.0 mm/hr 0.00 in0.0 mm
05:13 AM 33.9°F1.1°C 24.5°F-4.2°C 68% 8.3 mph NW13.4 kmh NW 23.1 mph37.2 kmh 29.71 in1006.1 mb 0.00 in0.0 mm 0.00 in/hr0.0 mm/hr 0.00 in0.0 mm
05:08 AM 33.9°F1.1°C 24.5°F-4.2°C 68% 10.3 mph NNW16.6 kmh NNW 23.1 mph37.2 kmh 29.70 in1005.8 mb 0.00 in0.0 mm 0.00 in/hr0.0 mm/hr 0.00 in0.0 mm
05:03 AM 34.0°F1.1°C 24.7°F-4.1°C 68% 4.5 mph NNW7.2 kmh NNW 15.6 mph25.1 kmh 29.70 in1005.8 mb 0.00 in0.0 mm 0.00 in/hr0.0 mm/hr 0.00 in0.0 mm
04:58 AM 34.2°F1.2°C 24.8°F-4.0°C 68% 5.4 mph NW8.7 kmh NW 15.6 mph25.1 kmh 29.70 in1005.8 mb 0.00 in0.0 mm 0.00 in/hr0.0 mm/hr 0.00 in0.0 mm
04:53 AM 34.2°F1.2°C 24.5°F-4.2°C 67% 8.6 mph NW13.8 kmh NW 19.9 mph32.0 kmh 29.70 in1005.8 mb 0.00 in0.0 mm 0.00 in/hr0.0 mm/hr 0.00 in0.0 mm
04:48 AM 34.5°F1.4°C 24.8°F-4.0°C 67% 6.0 mph NW9.7 kmh NW 19.9 mph32.0 kmh 29.69 in1005.4 mb 0.00 in0.0 mm 0.00 in/hr0.0 mm/hr 0.00 in0.0 mm
04:43 AM 34.7°F1.5°C 25.0°F-3.9°C 67% 7.7 mph NW12.4 kmh NW 19.3 mph31.1 kmh 29.69 in1005.4 mb 0.00 in0.0 mm 0.00 in/hr0.0 mm/hr 0.00 in0.0 mm
04:38 AM 35.1°F1.7°C 25.0°F-3.9°C 66% 11.7 mph N18.8 kmh N 18.0 mph29.0 kmh 29.69 in1005.4 mb 0.00 in0.0 mm 0.00 in/hr0.0 mm/hr 0.00 in0.0 mm
04:33 AM 35.4°F1.9°C 25.2°F-3.8°C 66% 8.8 mph NNW14.2 kmh NNW 16.4 mph26.4 kmh 29.69 in1005.4 mb 0.00 in0.0 mm 0.00 in/hr0.0 mm/hr 0.00 in0.0 mm
04:28 AM 35.8°F2.1°C 26.0°F-3.3°C 67% 7.7 mph W12.4 kmh W 16.4 mph26.4 kmh 29.69 in1005.4 mb 0.00 in0.0 mm 0.00 in/hr0.0 mm/hr 0.00 in0.0 mm
04:23 AM 36.0°F2.2°C 26.2°F-3.2°C 67% 5.9 mph NW9.5 kmh NW 16.8 mph27.0 kmh 29.69 in1005.4 mb 0.00 in0.0 mm 0.00 in/hr0.0 mm/hr 0.00 in0.0 mm
04:18 AM 36.2°F2.3°C 26.4°F-3.1°C 67% 4.1 mph 6.6 kmh 16.8 mph27.0 kmh 29.68 in1005.1 mb 0.00 in0.0 mm 0.00 in/hr0.0 mm/hr 0.00 in0.0 mm
04:13 AM 36.3°F2.4°C 26.4°F-3.1°C 67% 5.2 mph NNW8.4 kmh NNW 18.0 mph29.0 kmh 29.68 in1005.1 mb 0.00 in0.0 mm 0.00 in/hr0.0 mm/hr 0.00 in0.0 mm
04:08 AM 36.5°F2.5°C 26.3°F-3.2°C 66% 10.0 mph NW16.1 kmh NW 21.2 mph34.1 kmh 29.68 in1005.1 mb 0.00 in0.0 mm 0.00 in/hr0.0 mm/hr 0.00 in0.0 mm
04:03 AM 36.7°F2.6°C 26.8°F-2.9°C 67% 5.7 mph NW9.2 kmh NW 21.5 mph34.6 kmh 29.68 in1005.1 mb 0.00 in0.0 mm 0.00 in/hr0.0 mm/hr 0.00 in0.0 mm
03:58 AM 37.1°F2.8°C 26.8°F-2.9°C 66% 10.6 mph NNW17.1 kmh NNW 21.5 mph34.6 kmh 29.68 in1005.1 mb 0.00 in0.0 mm 0.00 in/hr0.0 mm/hr 0.00 in0.0 mm
03:53 AM 37.5°F3.1°C 27.3°F-2.6°C 66% 11.0 mph NW17.7 kmh NW 21.2 mph34.1 kmh 29.67 in1004.7 mb 0.00 in0.0 mm 0.00 in/hr0.0 mm/hr 0.00 in0.0 mm
03:48 AM 38.2°F3.4°C 28.3°F-2.1°C 67% 12.6 mph NNW20.3 kmh NNW 20.8 mph33.5 kmh 29.67 in1004.7 mb 0.00 in0.0 mm 0.00 in/hr0.0 mm/hr 0.00 in0.0 mm
03:43 AM 38.8°F3.8°C 28.9°F-1.7°C 67% 7.8 mph N12.6 kmh N 20.8 mph33.5 kmh 29.67 in1004.7 mb 0.00 in0.0 mm 0.00 in/hr0.0 mm/hr 0.00 in0.0 mm
03:38 AM 39.5°F4.2°C 29.5°F-1.4°C 67% 10.5 mph NNW16.9 kmh NNW 20.8 mph33.5 kmh 29.66 in1004.4 mb 0.00 in0.0 mm 0.00 in/hr0.0 mm/hr 0.00 in0.0 mm
03:33 AM 40.0°F4.4°C 30.0°F-1.1°C 67% 7.6 mph NW12.2 kmh NW 19.6 mph31.5 kmh 29.66 in1004.4 mb 0.00 in0.0 mm 0.00 in/hr0.0 mm/hr 0.00 in0.0 mm
03:28 AM 40.2°F4.6°C 29.8°F-1.2°C 66% 6.1 mph NW9.8 kmh NW 17.7 mph28.5 kmh 29.66 in1004.4 mb 0.00 in0.0 mm 0.00 in/hr0.0 mm/hr 0.00 in0.0 mm
03:23 AM 40.2°F4.6°C 29.8°F-1.2°C 66% 7.3 mph NW11.7 kmh NW 17.7 mph28.5 kmh 29.65 in1004.1 mb 0.00 in0.0 mm 0.00 in/hr0.0 mm/hr 0.00 in0.0 mm
03:18 AM 40.4°F4.7°C 30.0°F-1.1°C 66% 4.5 mph NW7.2 kmh NW 12.6 mph20.3 kmh 29.65 in1004.1 mb 0.00 in0.0 mm 0.00 in/hr0.0 mm/hr 0.00 in0.0 mm
03:13 AM 40.4°F4.7°C 30.3°F-0.9°C 67% 5.0 mph NW8.0 kmh NW 10.5 mph16.9 kmh 29.65 in1004.1 mb 0.00 in0.0 mm 0.00 in/hr0.0 mm/hr 0.00 in0.0 mm
03:08 AM 40.5°F4.7°C 30.5°F-0.8°C 67% 4.3 mph NW6.9 kmh NW 10.2 mph16.4 kmh 29.65 in1004.1 mb 0.00 in0.0 mm 0.00 in/hr0.0 mm/hr 0.00 in0.0 mm
03:03 AM 40.5°F4.7°C 30.5°F-0.8°C 67% 3.2 mph NNW5.1 kmh NNW 12.1 mph19.5 kmh 29.65 in1004.1 mb 0.00 in0.0 mm 0.00 in/hr0.0 mm/hr 0.00 in0.0 mm
02:58 AM 40.6°F4.8°C 30.6°F-0.8°C 67% 4.5 mph N7.2 kmh N 12.1 mph19.5 kmh 29.65 in1004.1 mb 0.00 in0.0 mm 0.00 in/hr0.0 mm/hr 0.00 in0.0 mm
02:53 AM 40.6°F4.8°C 31.0°F-0.6°C 68% 5.8 mph NNW9.3 kmh NNW 13.3 mph21.4 kmh 29.65 in1004.1 mb 0.00 in0.0 mm 0.00 in/hr0.0 mm/hr 0.00 in0.0 mm
02:48 AM 40.8°F4.9°C 31.2°F-0.4°C 68% 5.3 mph N8.5 kmh N 13.3 mph21.4 kmh 29.66 in1004.4 mb 0.00 in0.0 mm 0.00 in/hr0.0 mm/hr 0.00 in0.0 mm
02:43 AM 40.8°F4.9°C 31.5°F-0.3°C 69% 5.0 mph NW8.0 kmh NW 9.8 mph15.8 kmh 29.65 in1004.1 mb 0.00 in0.0 mm 0.00 in/hr0.0 mm/hr 0.00 in0.0 mm
02:38 AM 40.8°F4.9°C 31.9°F-0.1°C 70% 1.3 mph WNW2.1 kmh WNW 10.2 mph16.4 kmh 29.65 in1004.1 mb 0.00 in0.0 mm 0.00 in/hr0.0 mm/hr 0.00 in0.0 mm
02:33 AM 41.0°F5.0°C 32.1°F0.1°C 70% 2.7 mph NNW4.3 kmh NNW 10.2 mph16.4 kmh 29.65 in1004.1 mb 0.00 in0.0 mm 0.00 in/hr0.0 mm/hr 0.00 in0.0 mm
02:28 AM 41.0°F5.0°C 32.4°F0.2°C 71% 1.6 mph NW2.6 kmh NW 7.5 mph12.1 kmh 29.65 in1004.1 mb 0.00 in0.0 mm 0.00 in/hr0.0 mm/hr 0.00 in0.0 mm
02:23 AM 41.2°F5.1°C 32.6°F0.3°C 71% 2.2 mph N3.5 kmh N 11.0 mph17.7 kmh 29.65 in1004.1 mb 0.00 in0.0 mm 0.00 in/hr0.0 mm/hr 0.00 in0.0 mm
02:18 AM 41.2°F5.1°C 32.6°F0.3°C 71% 4.6 mph NW7.4 kmh NW 12.6 mph20.3 kmh 29.65 in1004.1 mb 0.00 in0.0 mm 0.00 in/hr0.0 mm/hr 0.00 in0.0 mm
02:13 AM 41.2°F5.1°C 32.6°F0.3°C 71% 5.2 mph NNW8.4 kmh NNW 12.6 mph20.3 kmh 29.65 in1004.1 mb 0.00 in0.0 mm 0.00 in/hr0.0 mm/hr 0.00 in0.0 mm
02:08 AM 41.2°F5.1°C 32.6°F0.3°C 71% 2.6 mph NW4.2 kmh NW 8.6 mph13.8 kmh 29.65 in1004.1 mb 0.00 in0.0 mm 0.00 in/hr0.0 mm/hr 0.00 in0.0 mm
02:03 AM 41.2°F5.1°C 32.6°F0.3°C 71% 1.1 mph N1.8 kmh N 7.9 mph12.7 kmh 29.65 in1004.1 mb 0.00 in0.0 mm 0.00 in/hr0.0 mm/hr 0.00 in0.0 mm
01:58 AM 41.4°F5.2°C 33.1°F0.6°C 72% 3.4 mph NW5.5 kmh NW 7.9 mph12.7 kmh 29.65 in1004.1 mb 0.00 in0.0 mm 0.00 in/hr0.0 mm/hr 0.00 in0.0 mm
01:53 AM 41.4°F5.2°C 33.1°F0.6°C 72% 1.6 mph NNW2.6 kmh NNW 13.7 mph22.0 kmh 29.64 in1003.7 mb 0.00 in0.0 mm 0.00 in/hr0.0 mm/hr 0.00 in0.0 mm
01:48 AM 41.5°F5.3°C 33.2°F0.7°C 72% 4.4 mph N7.1 kmh N 13.7 mph22.0 kmh 29.64 in1003.7 mb 0.00 in0.0 mm 0.00 in/hr0.0 mm/hr 0.00 in0.0 mm
01:43 AM 41.5°F5.3°C 33.6°F0.9°C 73% 3.1 mph NNW5.0 kmh NNW 9.4 mph15.1 kmh 29.64 in1003.7 mb 0.00 in0.0 mm 0.00 in/hr0.0 mm/hr 0.00 in0.0 mm
01:38 AM 41.5°F5.3°C 33.6°F0.9°C 73% 2.2 mph N3.5 kmh N 9.8 mph15.8 kmh 29.64 in1003.7 mb 0.00 in0.0 mm 0.00 in/hr0.0 mm/hr 0.00 in0.0 mm
01:33 AM 41.7°F5.4°C 34.1°F1.2°C 74% 2.5 mph NNW4.0 kmh NNW 11.0 mph17.7 kmh 29.64 in1003.7 mb 0.00 in0.0 mm 0.00 in/hr0.0 mm/hr 0.00 in0.0 mm
01:28 AM 41.9°F5.5°C 34.3°F1.3°C 74% 5.0 mph N8.0 kmh N 12.1 mph19.5 kmh 29.64 in1003.7 mb 0.00 in0.0 mm 0.00 in/hr0.0 mm/hr 0.00 in0.0 mm
01:22 AM 42.3°F5.7°C 35.0°F1.7°C 75% 5.6 mph NW9.0 kmh NW 14.9 mph24.0 kmh 29.64 in1003.7 mb 0.00 in0.0 mm 0.00 in/hr0.0 mm/hr 0.00 in0.0 mm
01:17 AM 42.8°F6.0°C 35.8°F2.1°C 76% 5.9 mph N9.5 kmh N 14.9 mph24.0 kmh 29.64 in1003.7 mb 0.00 in0.0 mm 0.00 in/hr0.0 mm/hr 0.00 in0.0 mm
01:12 AM 43.0°F6.1°C 36.6°F2.6°C 78% 8.5 mph N13.7 kmh N 14.2 mph22.9 kmh 29.64 in1003.7 mb 0.00 in0.0 mm 0.00 in/hr0.0 mm/hr 0.00 in0.0 mm
01:07 AM 43.2°F6.2°C 37.1°F2.8°C 79% 4.4 mph NW7.1 kmh NW 10.2 mph16.4 kmh 29.64 in1003.7 mb 0.00 in0.0 mm 0.00 in/hr0.0 mm/hr 0.00 in0.0 mm
01:02 AM 43.0°F6.1°C 36.9°F2.7°C 79% 1.8 mph WNW2.9 kmh WNW 6.3 mph10.1 kmh 29.63 in1003.4 mb 0.00 in0.0 mm 0.00 in/hr0.0 mm/hr 0.00 in0.0 mm
12:57 AM 43.0°F6.1°C 36.9°F2.7°C 79% 1.1 mph W1.8 kmh W 6.0 mph9.7 kmh 29.63 in1003.4 mb 0.00 in0.0 mm 0.00 in/hr0.0 mm/hr 0.00 in0.0 mm
12:52 AM 43.0°F6.1°C 36.9°F2.7°C 79% 1.9 mph NW3.1 kmh NW 6.0 mph9.7 kmh 29.63 in1003.4 mb 0.00 in0.0 mm 0.00 in/hr0.0 mm/hr 0.00 in0.0 mm
12:47 AM 43.0°F6.1°C 36.9°F2.7°C 79% 1.1 mph NW1.8 kmh NW 5.1 mph8.2 kmh 29.63 in1003.4 mb 0.00 in0.0 mm 0.00 in/hr0.0 mm/hr 0.00 in0.0 mm
12:42 AM 43.0°F6.1°C 36.9°F2.7°C 79% 0.8 mph NW1.3 kmh NW 5.1 mph8.2 kmh 29.63 in1003.4 mb 0.00 in0.0 mm 0.00 in/hr0.0 mm/hr 0.00 in0.0 mm
12:37 AM 43.2°F6.2°C 37.1°F2.8°C 79% 1.9 mph NW3.1 kmh NW 8.6 mph13.8 kmh 29.63 in1003.4 mb 0.00 in0.0 mm 0.00 in/hr0.0 mm/hr 0.00 in0.0 mm
12:32 AM 43.2°F6.2°C 37.1°F2.8°C 79% 1.1 mph WNW1.8 kmh WNW 8.6 mph13.8 kmh 29.63 in1003.4 mb 0.00 in0.0 mm 0.00 in/hr0.0 mm/hr 0.00 in0.0 mm
12:27 AM 43.0°F6.1°C 36.9°F2.7°C 79% 2.3 mph WNW3.7 kmh WNW 6.7 mph10.8 kmh 29.63 in1003.4 mb 0.00 in0.0 mm 0.00 in/hr0.0 mm/hr 0.00 in0.0 mm
12:22 AM 43.2°F6.2°C 37.1°F2.8°C 79% 1.3 mph NW2.1 kmh NW 3.9 mph6.3 kmh 29.63 in1003.4 mb 0.00 in0.0 mm 0.00 in/hr0.0 mm/hr 0.00 in0.0 mm
12:17 AM 43.0°F6.1°C 36.9°F2.7°C 79% 1.5 mph NW2.4 kmh NW 5.1 mph8.2 kmh 29.63 in1003.4 mb 0.00 in0.0 mm 0.00 in/hr0.0 mm/hr 0.00 in0.0 mm
12:12 AM 43.2°F6.2°C 37.1°F2.8°C 79% 1.3 mph NW2.1 kmh NW 5.1 mph8.2 kmh 29.63 in1003.4 mb 0.00 in0.0 mm 0.00 in/hr0.0 mm/hr 0.00 in0.0 mm
12:07 AM 43.0°F6.1°C 36.9°F2.7°C 79% 1.4 mph W2.3 kmh W 5.1 mph8.2 kmh 29.63 in1003.4 mb 0.00 in0.0 mm 0.00 in/hr0.0 mm/hr 0.00 in0.0 mm
12:02 AM 43.0°F6.1°C 36.9°F2.7°C 79% 1.5 mph NW2.4 kmh NW 5.1 mph8.2 kmh 29.63 in1003.4 mb 0.00 in0.0 mm 0.00 in/hr0.0 mm/hr 0.00 in0.0 mm